Latest Weather Observations for Lucas Heights (ANSTO)

IDN60801

Issued at 2:52 pm EST Monday 23 September 2019 (issued every 10 minutes, with the page automatically refreshed every 10 minutes)

About weather observations | Map of weather stations | Latest weather observations for NSW | Other Formats
Station Details ID: 066023 Name: LUCAS HEIGHTS (ANSTO) Lat: -34.05 Lon: 150.98 Height: 140.0 m
Data from the previous 72 hours. | See also: Recent months for locations in New South Wales
Date/Time
EST
Temp
°C
App
Temp
°C
Dew
Point
°C
Rel
Hum
%
Delta-T
°C
Wind Press
QNH
hPa
Press
MSL
hPa
Rain since
9am
mm
Dir  Spd
km/h
Gust
km/h
Spd
kts
Gust
kts
23/02:30pm 18.8 10.9 -1.2 26 8.6 SW 30 48 16 26 1020.3 - 0.0
23/02:15pm 18.7 11.6 -1.5 25 8.6 WSW 26 43 14 23 1020.2 - 0.0
23/02:00pm 19.5 12.4 -1.4 24 9.0 WSW 26 43 14 23 1020.1 - 0.0
23/01:45pm 19.3 12.2 -1.5 24 8.9 WSW 26 41 14 22 1020.2 - 0.0
23/01:30pm 19.5 12.5 -0.5 26 8.8 WSW 26 39 14 21 1020.3 - 0.0
23/01:15pm 19.2 11.8 -0.6 26 8.6 SW 28 41 15 22 1020.4 - 0.0
23/01:00pm 19.1 11.8 -0.3 27 8.5 WSW 28 41 15 22 1020.4 - 0.0
23/12:45pm 19.1 12.1 -0.7 26 8.6 W 26 37 14 20 1020.5 - 0.0
23/12:30pm 18.6 11.5 -1.1 26 8.5 WSW 26 37 14 20 1020.7 - 0.0
23/12:15pm 19.1 11.7 -0.9 26 8.7 WSW 28 46 15 25 1020.8 - 0.0
23/12:00pm 18.7 13.1 0.2 28 8.2 WSW 19 37 10 20 1020.9 - 0.0
23/11:45am 18.9 13.4 0.6 29 8.2 WSW 19 35 10 19 1020.9 - 0.0
23/11:30am 18.5 12.1 0.9 30 7.9 WSW 24 43 13 23 1021.2 - 0.0
23/11:15am 17.6 13.9 2.1 35 7.1 WNW 11 24 6 13 1021.5 - 0.0
23/11:00am 17.8 13.7 2.2 35 7.1 W 13 28 7 15 1021.6 - 0.0
23/10:45am 17.9 13.2 2.9 36 7.0 WNW 17 33 9 18 1021.8 - 0.0
23/10:30am 17.4 12.6 2.6 37 6.8 W 17 26 9 14 1022.1 - 0.0
23/10:15am 17.1 12.6 2.4 37 6.7 W 15 24 8 13 1022.2 - 0.0
23/10:00am 17.1 13.4 2.5 37 6.7 W 11 33 6 18 1022.4 - 0.0
23/09:45am 16.8 13.5 2.2 37 6.6 W 9 19 5 10 1022.6 - 0.0
23/09:30am 16.7 12.9 1.9 37 6.7 W 11 17 6 9 1022.8 - 0.0
23/09:15am 16.3 12.5 1.7 37 6.5 W 11 19 6 10 1022.9 - 0.0
23/09:00am 16.0 11.9 2.3 39 6.2 WNW 13 19 7 10 1023.0 - 0.0
23/08:45am 15.9 12.2 2.5 40 6.1 W 11 15 6 8 1023.0 - 0.0
23/08:30am 15.7 11.9 1.9 39 6.2 W 11 17 6 9 1022.9 - 0.0
23/08:15am 15.4 11.7 2.5 42 5.8 W 11 15 6 8 1022.9 - 0.0
23/08:00am 14.7 11.1 2.8 44 5.4 WSW 11 15 6 8 1023.0 - 0.0
23/07:45am 14.2 10.6 3.2 47 5.0 WSW 11 17 6 9 1023.1 - 0.0
23/07:30am 13.3 9.4 3.5 51 4.4 WSW 13 19 7 10 1023.1 - 0.0
23/07:15am 12.3 8.1 3.7 55 3.9 SW 15 20 8 11 1023.0 - 0.0
23/07:00am 11.4 6.8 3.5 58 3.5 SW 17 20 9 11 1022.8 - 0.0
23/06:45am 10.5 5.4 3.2 60 3.2 SW 19 20 10 11 1022.7 - 0.0
23/06:30am 9.4 4.7 3.2 65 2.7 SW 17 20 9 11 1022.6 - 0.0
23/06:15am 9.6 5.2 2.8 62 2.9 SW 15 19 8 10 1022.5 - 0.0
23/06:00am 10.2 5.4 2.4 58 3.3 SW 17 20 9 11 1022.5 - 0.0
23/05:45am 10.6 5.2 2.4 57 3.5 SW 20 22 11 12 1022.5 - 0.0
23/05:30am 10.8 5.1 2.6 57 3.6 SW 22 24 12 13 1022.4 - 0.0
23/05:15am 10.9 5.2 2.8 57 3.5 SW 22 26 12 14 1022.2 - 0.0
23/05:00am 11.0 5.7 2.9 57 3.5 SW 20 26 11 14 1022.1 - 0.0
23/04:45am 11.4 6.3 3.1 56 3.7 SW 19 22 10 12 1022.0 - 0.0
23/04:30am 11.3 5.8 3.8 60 3.4 SW 22 24 12 13 1022.0 - 0.0
23/04:15am 10.7 5.4 5.0 68 2.6 SW 22 24 12 13 1021.9 - 0.0
23/04:00am 8.7 4.2 6.0 83 1.2 SSW 19 22 10 12 1021.9 - 0.0
23/03:45am 8.8 4.7 6.1 83 1.2 SSW 17 20 9 11 1021.9 - 0.0
23/03:30am 9.1 5.4 6.3 83 1.3 SSW 15 20 8 11 1022.0 - 0.0
23/03:15am 9.2 5.5 6.5 83 1.3 SSW 15 19 8 10 1022.1 - 0.0
23/03:00am 9.4 5.7 6.5 82 1.4 SSW 15 19 8 10 1022.1 - 0.0
23/02:45am 10.0 6.8 6.7 80 1.6 S 13 15 7 8 1022.0 - 0.0
23/02:30am 10.1 6.7 6.1 76 1.9 SSW 13 17 7 9 1022.1 - 0.0
23/02:15am 10.3 6.9 6.1 75 2.0 SSW 13 19 7 10 1022.2 - 0.0
23/02:00am 10.6 7.5 7.1 79 1.7 S 13 17 7 9 1022.3 - 0.0
23/01:45am 10.9 7.5 7.7 80 1.6 SSW 15 19 8 10 1022.3 - 0.0
23/01:30am 11.6 8.8 8.4 81 1.6 S 13 17 7 9 1022.4 - 0.0
23/01:15am 12.3 9.9 8.8 79 1.8 S 11 15 6 8 1022.5 - 0.0
23/01:00am 12.9 10.3 9.3 79 1.8 S 13 19 7 10 1022.5 - 0.0
23/12:45am 13.3 11.1 10.7 84 1.4 S 13 19 7 10 1022.5 - 0.0
23/12:30am 12.9 10.8 11.3 90 0.9 SSW 13 19 7 10 1022.6 - 0.0
23/12:15am 12.4 9.8 10.8 90 0.8 S 15 19 8 10 1022.5 - 0.0
23/12:00am 12.6 10.5 11.1 91 0.8 S 13 19 7 10 1022.4 - 0.0
 
Date/Time
EST
Temp
°C
App
Temp
°C
Dew
Point
°C
Rel
Hum
%
Delta-T
°C
Wind Press
QNH
hPa
Press
MSL
hPa
Rain since
9am
mm
Dir  Spd
km/h
Gust
km/h
Spd
kts
Gust
kts
22/11:45pm 12.7 11.0 11.2 91 0.8 S 11 15 6 8 1022.4 - 0.0
22/11:30pm 13.0 11.4 11.4 90 0.9 S 11 15 6 8 1022.5 - 0.0
22/11:15pm 13.1 11.9 11.6 91 0.8 S 9 13 5 7 1022.5 - 0.0
22/11:00pm 13.1 11.5 11.5 90 0.9 S 11 15 6 8 1022.6 - 0.0
22/10:45pm 13.5 12.0 11.8 89 0.9 S 11 15 6 8 1022.7 - 0.0
22/10:30pm 13.7 12.6 12.0 89 0.9 S 9 11 5 6 1022.8 - 0.0
22/10:15pm 13.7 12.6 12.0 89 0.9 S 9 11 5 6 1022.8 - 0.0
22/10:00pm 13.7 12.6 12.0 89 0.9 S 9 13 5 7 1022.8 - 0.0
22/09:45pm 13.9 12.9 12.2 89 0.9 S 9 13 5 7 1022.9 - 0.0
22/09:30pm 14.0 13.0 12.3 89 0.9 SSW 9 13 5 7 1022.8 - 0.0
22/09:15pm 14.1 13.1 12.4 89 0.9 SSW 9 11 5 6 1022.7 - 0.0
22/09:00pm 14.1 13.5 12.3 89 1.0 S 7 9 4 5 1022.7 - 0.0
22/08:45pm 14.1 13.5 12.3 89 1.0 S 7 9 4 5 1022.7 - 0.0
22/08:30pm 14.1 13.5 12.3 89 1.0 SSE 7 9 4 5 1022.6 - 0.0
22/08:15pm 14.0 13.4 12.2 89 1.0 SSE 7 9 4 5 1022.5 - 0.0
22/08:00pm 14.1 13.4 12.1 88 1.1 SE 7 11 4 6 1022.4 - 0.0
22/07:45pm 14.4 13.4 12.4 88 1.1 ESE 9 11 5 6 1022.4 - 0.0
22/07:30pm 14.4 13.4 12.4 88 1.1 SE 9 11 5 6 1022.3 - 0.0
22/07:15pm 14.3 13.2 12.1 87 1.2 SSE 9 11 5 6 1022.1 - 0.0
22/07:00pm 14.6 13.6 12.2 85 1.3 SSE 9 11 5 6 1021.9 - 0.0
22/06:45pm 14.9 13.9 12.3 84 1.4 SE 9 15 5 8 1021.8 - 0.0
22/06:30pm 15.1 13.7 12.3 83 1.5 SE 11 15 6 8 1021.7 - 0.0
22/06:15pm 15.4 14.1 12.4 82 1.7 SE 11 15 6 8 1021.6 - 0.0
22/06:00pm 15.7 14.0 12.4 81 1.8 SE 13 20 7 11 1021.5 - 0.0
22/05:45pm 16.1 13.6 12.2 77 2.1 ESE 17 24 9 13 1021.3 - 0.0
22/05:30pm 16.5 14.3 12.0 75 2.5 ESE 15 26 8 14 1021.0 - 0.0
22/05:15pm 16.8 14.1 11.8 72 2.7 ESE 17 24 9 13 1020.9 - 0.0
22/05:00pm 17.1 13.7 11.3 68 3.2 ESE 20 28 11 15 1020.7 - 0.0
22/04:45pm 17.4 13.7 11.6 69 3.2 ESE 22 30 12 16 1020.4 - 0.0
22/04:30pm 17.8 14.2 9.8 59 4.3 ESE 19 28 10 15 1020.3 - 0.0
22/04:15pm 18.0 13.4 8.3 53 5.0 ESE 22 30 12 16 1020.2 - 0.0
22/04:00pm 18.4 14.3 8.0 50 5.4 ESE 19 26 10 14 1020.1 - 0.0
22/03:45pm 18.4 14.4 8.9 54 5.0 ESE 20 28 11 15 1020.0 - 0.0
22/03:30pm 18.7 15.4 9.5 55 4.9 E 17 24 9 13 1019.8 - 0.0
22/03:15pm 19.2 15.0 8.3 49 5.7 ESE 20 28 11 15 1019.5 - 0.0
22/03:00pm 19.9 16.0 8.5 47 6.0 E 19 26 10 14 1019.5 - 0.0
22/02:30pm 19.9 16.6 9.5 51 5.6 ESE 17 22 9 12 1019.6 - 0.0
22/02:15pm 20.0 17.1 9.7 51 5.5 ESE 15 24 8 13 1019.7 - 0.0
22/02:00pm 20.6 17.8 9.9 50 5.8 E 15 22 8 12 1019.7 - 0.0
22/01:45pm 21.6 19.5 9.8 47 6.4 E 11 20 6 11 1019.7 - 0.0
22/01:30pm 22.4 21.3 9.8 44 6.9 WNW 6 13 3 7 1019.7 - 0.0
22/01:15pm 22.4 20.3 9.7 44 6.9 WNW 11 20 6 11 1020.0 - 0.0
22/01:00pm 22.2 20.1 9.6 44 6.8 NW 11 20 6 11 1020.2 - 0.0
22/12:45pm 21.8 20.0 9.3 45 6.7 NW 9 19 5 10 1020.4 - 0.0
22/12:30pm 21.6 19.1 8.4 42 7.0 W 11 20 6 11 1020.6 - 0.0
22/12:15pm 21.3 18.9 8.7 44 6.7 WSW 11 19 6 10 1020.8 - 0.0
22/12:00pm 20.9 18.4 8.1 43 6.7 WSW 11 20 6 11 1020.9 - 0.0
22/11:45am 20.3 18.4 7.5 43 6.6 WSW 7 19 4 10 1021.0 - 0.0
22/11:30am 20.0 17.7 7.3 43 6.5 WSW 9 20 5 11 1021.2 - 0.0
22/11:15am 19.2 16.5 7.3 46 6.1 WSW 11 19 6 10 1021.4 - 0.0
22/11:00am 18.9 15.1 7.4 47 5.9 SW 17 24 9 13 1021.4 - 0.0
22/10:45am 18.8 14.0 7.4 47 5.8 SW 22 33 12 18 1021.3 - 0.0
22/10:30am 18.7 14.4 7.7 48 5.6 SW 20 30 11 16 1021.4 - 0.0
22/10:15am 18.7 14.0 7.7 48 5.6 SW 22 32 12 17 1021.4 - 0.0
22/10:00am 18.5 14.5 8.9 53 5.0 SW 20 30 11 16 1021.4 - 0.0
22/09:45am 18.7 14.9 9.2 54 5.0 SSW 19 28 10 15 1021.5 - 0.0
22/09:30am 18.0 14.4 9.8 58 4.4 SSW 19 32 10 17 1021.3 - 0.0
22/09:15am 16.6 12.7 9.3 62 3.8 SW 20 30 11 16 1021.4 - 0.0
22/09:00am 16.4 12.4 9.2 62 3.7 SW 20 33 11 18 1021.3 - 0.0
22/08:45am 16.4 12.1 9.4 63 3.7 SW 22 33 12 18 1021.3 - 0.0
22/08:30am 16.2 12.4 9.8 66 3.4 SW 20 30 11 16 1021.2 - 0.0
22/08:15am 16.2 13.4 10.1 67 3.2 SSW 15 20 8 11 1020.8 - 0.0
22/08:00am 16.5 12.9 10.4 67 3.3 SSW 20 30 11 16 1020.8 - 0.0
22/07:45am 16.8 12.9 10.9 68 3.2 SW 22 33 12 18 1020.7 - 0.0
22/07:30am 17.0 14.3 11.6 70 3.0 SSW 17 24 9 13 1020.4 - 0.0
22/07:15am 16.9 15.0 11.7 71 2.9 SSW 13 19 7 10 1020.0 - 0.0
22/07:00am 16.9 14.6 11.8 72 2.8 SSW 15 22 8 12 1019.8 - 0.0
22/06:45am 17.2 14.2 12.1 72 2.8 SSW 19 24 10 13 1019.8 - 0.0
22/06:30am 17.3 15.6 12.5 73 2.7 SSW 13 20 7 11 1019.7 - 0.0
22/06:15am 17.8 17.4 12.4 70 3.0 SW 6 9 3 5 1019.4 - 0.0
22/06:00am 18.1 16.7 12.3 69 3.2 WSW 11 17 6 9 1019.1 - 0.0
22/05:45am 18.2 15.7 12.4 69 3.2 W 17 19 9 10 1018.8 - 0.0
22/05:30am 18.2 16.1 12.5 69 3.2 WNW 15 19 8 10 1018.6 - 0.0
22/05:15am 18.3 15.9 12.5 69 3.3 WNW 17 20 9 11 1018.4 - 0.0
22/05:00am 18.6 16.2 12.5 67 3.4 WNW 17 24 9 13 1018.0 - 0.0
22/04:45am 18.5 16.5 12.7 69 3.3 WNW 15 19 8 10 1017.6 - 0.0
22/04:30am 17.7 15.8 13.1 74 2.6 NW 15 19 8 10 1017.4 - 0.0
22/04:15am 17.4 15.9 13.1 76 2.4 NNW 13 17 7 9 1017.2 - 0.0
22/04:00am 17.5 15.6 13.1 75 2.5 NW 15 19 8 10 1017.1 - 0.0
22/03:45am 17.8 15.2 13.2 74 2.6 NW 19 19 10 10 1017.0 - 0.0
22/03:30am 17.7 15.5 13.2 75 2.5 NW 17 20 9 11 1017.1 - 0.0
22/03:15am 17.9 15.7 13.3 74 2.6 NW 17 19 9 10 1017.0 - 0.0
22/03:00am 18.0 16.2 13.3 74 2.7 NW 15 19 8 10 1016.8 - 0.0
22/02:45am 18.1 16.7 13.3 73 2.7 NW 13 17 7 9 1017.0 - 0.0
22/02:30am 18.3 16.8 13.2 72 2.9 NW 13 19 7 10 1017.3 - 0.0
22/02:15am 18.7 17.2 13.2 70 3.1 NW 13 17 7 9 1017.5 - 0.0
22/02:00am 18.5 17.1 13.3 71 3.0 NW 13 15 7 8 1017.5 - 0.0
22/01:45am 18.4 17.0 13.3 72 2.9 NW 13 15 7 8 1017.6 - 0.0
22/01:30am 18.5 16.7 13.3 71 3.0 NW 15 17 8 9 1017.9 - 0.0
22/01:15am 18.6 16.4 13.3 71 3.0 NW 17 19 9 10 1017.9 - 0.0
22/01:00am 18.6 16.4 13.3 71 3.0 NW 17 20 9 11 1017.8 - 0.0
22/12:45am 18.4 16.2 13.4 72 2.9 NNW 17 20 9 11 1017.6 - 0.0
22/12:30am 18.6 16.5 13.7 73 2.8 NNW 17 22 9 12 1017.6 - 0.0
22/12:15am 18.4 16.0 13.8 74 2.6 NNW 19 24 10 13 1017.9 - 0.0
22/12:00am 18.1 15.9 14.5 79 2.1 NNW 19 24 10 13 1017.8 - 0.0
 
Date/Time
EST
Temp
°C
App
Temp
°C
Dew
Point
°C
Rel
Hum
%
Delta-T
°C
Wind Press
QNH
hPa
Press
MSL
hPa
Rain since
9am
mm
Dir  Spd
km/h
Gust
km/h
Spd
kts
Gust
kts
21/11:45pm 18.0 16.6 14.6 80 2.0 NNW 15 22 8 12 1017.7 - 0.0
21/11:30pm 17.9 16.3 15.1 84 1.6 NNW 17 28 9 15 1017.7 - 0.0
21/11:15pm 17.1 16.2 14.9 87 1.3 NNW 13 28 7 15 1017.7 - 0.0
21/11:00pm 16.9 16.3 14.7 87 1.3 - 11 19 6 10 1017.6 - 0.0
21/10:45pm 16.9 16.7 14.6 86 1.3 N 9 13 5 7 1017.7 - 0.0
21/10:30pm 17.4 17.3 14.9 85 1.5 N 9 11 5 6 1017.7 - 0.0
21/10:15pm 17.7 17.3 15.3 86 1.4 N 11 19 6 10 1017.8 - 0.0
21/10:00pm 17.6 16.9 15.3 86 1.4 NNE 13 19 7 10 1017.7 - 0.0
21/09:45pm 17.5 16.4 15.2 86 1.3 NNE 15 20 8 11 1017.7 - 0.0
21/09:30pm 17.5 17.0 15.0 85 1.5 NE 11 19 6 10 1017.7 - 0.0
21/09:15pm 17.9 17.9 15.2 84 1.6 NNE 9 13 5 7 1018.1 - 0.0
21/09:00pm 18.3 18.4 15.5 84 1.7 NW 9 13 5 7 1018.5 - 0.0
21/08:45pm 18.3 18.1 15.6 84 1.6 W 11 19 6 10 1018.7 - 0.0
21/08:30pm 18.3 18.4 15.6 84 1.6 W 9 13 5 7 1018.5 - 0.0
21/08:15pm 18.4 19.1 15.5 83 1.7 NNE 6 11 3 6 1018.3 - 0.0
21/08:00pm 18.6 18.4 15.6 83 1.8 ENE 11 17 6 9 1018.2 - 0.0
21/07:45pm 18.8 17.8 15.6 82 1.9 NE 15 20 8 11 1018.0 - 0.0
21/07:30pm 19.3 17.5 15.6 79 2.2 ENE 19 22 10 12 1017.9 - 0.0
21/07:15pm 19.5 18.9 15.6 78 2.3 NE 13 19 7 10 1018.1 - 0.0
21/07:00pm 19.8 20.3 15.6 77 2.5 WSW 7 19 4 10 1018.7 - 0.0
21/06:45pm 20.5 18.7 15.6 73 2.9 WSW 19 24 10 13 1019.0 - 0.0
21/06:30pm 20.3 18.9 15.6 74 2.8 WSW 17 22 9 12 1018.6 - 0.0
21/06:15pm 20.2 20.3 15.5 74 2.8 SW 9 15 5 8 1018.3 - 0.0
21/06:00pm 20.4 20.5 15.4 73 3.0 E 9 19 5 10 1017.9 - 0.0
21/05:45pm 20.6 19.9 15.4 72 3.1 NE 13 19 7 10 1017.5 - 0.0
21/05:30pm 20.8 20.5 15.4 71 3.2 NE 11 19 6 10 1017.4 - 0.0
21/05:15pm 21.0 20.3 15.4 70 3.3 NE 13 20 7 11 1017.3 - 0.0
21/05:00pm 21.1 20.4 15.5 70 3.4 NE 13 19 7 10 1017.2 - 0.0
21/04:45pm 21.3 21.1 15.6 70 3.4 NE 11 19 6 10 1017.1 - 0.0
21/04:30pm 21.5 21.3 15.7 69 3.5 NE 11 19 6 10 1017.1 - 0.0
21/04:15pm 21.6 21.0 15.7 69 3.6 NE 13 20 7 11 1017.0 - 0.0
21/04:00pm 22.2 21.7 15.9 67 3.8 NE 13 19 7 10 1016.9 - 0.0
21/03:45pm 22.7 22.2 16.0 66 4.1 ENE 13 20 7 11 1016.9 - 0.0
21/03:30pm 22.5 22.3 15.7 65 4.1 ENE 11 19 6 10 1017.0 - 0.0
21/03:15pm 23.2 22.3 14.8 59 5.0 NE 13 20 7 11 1017.0 - 0.0
21/03:00pm 24.1 21.9 13.4 51 6.3 N 17 30 9 16 1017.0 - 0.0
21/02:45pm 23.8 21.2 13.1 51 6.2 N 19 32 10 17 1017.1 - 0.0
21/02:30pm 24.1 23.1 13.5 51 6.2 N 11 24 6 13 1017.2 - 0.0
21/02:15pm 24.2 22.4 13.3 50 6.4 NNW 15 30 8 16 1017.3 - 0.0
21/02:00pm 24.2 21.3 13.0 49 6.5 NNW 20 37 11 20 1017.2 - 0.0
21/01:45pm 24.2 21.4 13.1 50 6.5 N 20 33 11 18 1017.4 - 0.0
21/01:30pm 24.0 21.3 13.4 51 6.2 N 20 33 11 18 1017.5 - 0.0
21/01:15pm 23.6 21.1 13.6 53 5.9 N 19 32 10 17 1017.5 - 0.0
21/01:00pm 23.4 20.8 13.9 55 5.6 N 20 33 11 18 1017.6 - 0.0
21/12:45pm 23.0 20.7 14.2 57 5.2 - 19 33 10 18 1017.9 - 0.0
21/12:30pm 22.4 19.9 14.1 59 4.9 N 20 32 11 17 1018.2 - 0.0
21/12:15pm 21.8 19.3 14.0 61 4.6 - 20 32 11 17 1018.7 - 0.0
21/12:00pm 21.4 19.5 14.3 64 4.2 N 17 28 9 15 1019.0 - 0.0
21/11:45am 21.2 19.1 14.7 66 3.8 N 19 32 10 17 1019.3 - 0.0
21/11:30am 20.6 19.7 14.9 70 3.4 N 13 24 7 13 1019.6 - 0.0
21/11:15am 19.8 19.2 14.6 72 3.0 - 11 19 6 10 1020.0 - 0.0
21/11:00am 19.4 18.5 14.8 75 2.7 N 13 19 7 10 1020.4 - 0.0
21/10:45am 19.0 17.7 14.8 76 2.5 N 15 24 8 13 1020.6 - 0.0
21/10:30am 18.4 17.8 14.7 79 2.2 N 11 19 6 10 1020.9 - 0.0
21/10:15am 17.8 16.3 14.3 80 2.0 N 15 20 8 11 1021.1 - 0.0
21/10:00am 17.7 16.2 14.2 80 2.0 N 15 20 8 11 1021.4 - 0.0
21/09:45am 17.6 16.5 14.2 80 2.0 N 13 20 7 11 1021.8 - 0.0
21/09:30am 17.3 16.2 14.3 82 1.7 N 13 19 7 10 1021.8 - 0.0
21/09:15am 17.1 15.6 14.2 83 1.7 - 15 20 8 11 1021.9 - 0.0
21/09:00am 17.0 16.0 14.5 85 1.4 - 13 20 7 11 1022.1 - 1.1
21/08:45am 16.7 15.6 14.4 86 1.3 N 13 19 7 10 1022.2 - 1.1
21/08:30am 16.4 15.7 14.4 88 1.1 N 11 19 6 10 1022.3 - 1.1
21/08:15am 16.2 15.1 14.2 88 1.1 - 13 20 7 11 1022.3 - 1.1
21/08:00am 16.1 14.6 14.1 88 1.1 N 15 22 8 12 1022.3 - 1.1
21/07:45am 16.0 14.8 14.1 88 1.1 N 13 19 7 10 1022.2 - 1.1
21/07:30am 15.9 15.1 14.1 89 1.0 N 11 19 6 10 1022.1 - 1.1
21/07:15am 15.7 14.5 14.0 90 1.0 N 13 19 7 10 1022.1 - 1.1
21/07:00am 15.5 14.2 13.7 89 1.0 N 13 19 7 10 1021.9 - 1.1
21/06:45am 15.3 14.0 13.6 90 1.0 N 13 19 7 10 1021.8 - 1.1
21/06:30am 15.3 13.9 13.5 89 1.0 N 13 20 7 11 1021.7 - 1.1
21/06:15am 15.2 13.8 13.3 88 1.1 N 13 20 7 11 1021.6 - 1.1
21/06:00am 15.2 14.1 13.2 88 1.1 N 11 19 6 10 1021.6 - 1.1
21/05:45am 15.3 14.2 13.2 87 1.2 N 11 19 6 10 1021.6 - 1.1
21/05:30am 15.5 14.1 13.3 87 1.2 NNE 13 19 7 10 1021.4 - 1.1
21/05:15am 15.7 14.3 13.4 86 1.3 NNE 13 20 7 11 1021.5 - 1.1
21/05:00am 15.8 14.8 13.4 86 1.4 NNE 11 24 6 13 1021.3 - 1.1
21/04:45am 16.0 14.6 13.5 85 1.4 NNE 13 19 7 10 1021.3 - 1.1
21/04:30am 16.2 14.9 13.7 85 1.4 NNE 13 20 7 11 1021.3 - 1.1
21/04:15am 16.3 14.6 13.7 84 1.5 NNE 15 20 8 11 1021.3 - 1.1
21/04:00am 16.4 15.1 13.8 84 1.5 NNE 13 17 7 9 1021.4 - 1.1
21/03:45am 16.5 15.6 13.8 84 1.5 NNE 11 17 6 9 1021.4 - 1.1
21/03:30am 16.5 15.6 13.8 84 1.5 NNE 11 19 6 10 1021.6 - 1.1
21/03:15am 16.6 15.7 13.8 83 1.6 NNE 11 17 6 9 1021.7 - 1.1
21/03:00am 16.7 15.4 13.8 83 1.7 NNE 13 19 7 10 1021.8 - 1.1
21/02:45am 16.8 15.5 13.8 82 1.7 NNE 13 19 7 10 1021.9 - 1.1
21/02:30am 16.8 15.2 13.8 82 1.7 NNE 15 24 8 13 1022.0 - 1.1
21/02:15am 16.9 15.3 13.8 82 1.8 NNE 15 24 8 13 1022.0 - 1.1
21/02:00am 16.9 15.3 13.9 82 1.7 NNE 15 24 8 13 1022.2 - 1.1
21/01:45am 16.9 15.7 13.9 82 1.7 NNE 13 20 7 11 1022.3 - 1.1
21/01:30am 17.0 15.4 13.9 82 1.8 NNE 15 26 8 14 1022.4 - 1.1
21/01:15am 17.0 15.4 14.0 82 1.7 N 15 28 8 15 1022.6 - 1.1
21/01:00am 17.0 15.1 14.1 83 1.7 NNE 17 28 9 15 1022.7 - 1.1
21/12:45am 17.0 15.8 14.1 83 1.7 NNE 13 22 7 12 1022.9 - 1.1
21/12:30am 17.0 15.1 14.1 83 1.7 NNE 17 28 9 15 1023.0 - 1.1
21/12:15am 16.9 15.3 13.8 82 1.8 NNE 15 24 8 13 1023.1 - 1.1
21/12:00am 17.1 15.6 14.1 82 1.7 NNE 15 20 8 11 1023.3 - 1.1
 
Date/Time
EST
Temp
°C
App
Temp
°C
Dew
Point
°C
Rel
Hum
%
Delta-T
°C
Wind Press
QNH
hPa
Press
MSL
hPa
Rain since
9am
mm
Dir  Spd
km/h
Gust
km/h
Spd
kts
Gust
kts
20/11:45pm 17.1 15.2 14.2 83 1.7 NNE 17 24 9 13 1023.4 - 1.1
20/11:30pm 17.1 15.2 14.3 83 1.6 NNE 17 24 9 13 1023.6 - 1.1
20/11:15pm 17.2 15.7 14.3 83 1.7 NNE 15 24 8 13 1023.6 - 1.1
20/11:00pm 17.3 15.1 14.4 83 1.7 NNE 19 30 10 16 1023.7 - 1.1
20/10:45pm 17.3 15.9 14.4 83 1.7 NNE 15 26 8 14 1023.8 - 1.1
20/10:30pm 17.4 15.2 14.5 83 1.7 NNE 19 33 10 18 1023.9 - 1.1
20/10:15pm 17.4 15.3 14.6 83 1.6 NNE 19 33 10 18 1023.8 - 1.1
20/10:00pm 17.3 14.9 14.5 83 1.6 NNE 20 33 11 18 1023.8 - 1.1
20/09:45pm 17.2 15.0 14.4 83 1.6 NNE 19 26 10 14 1024.0 - 1.1
20/09:30pm 17.3 14.9 14.4 83 1.7 NNE 20 30 11 16 1024.2 - 1.1
20/09:15pm 17.3 15.5 14.4 83 1.7 NNE 17 30 9 16 1024.2 - 1.1
20/09:00pm 17.3 15.1 14.4 83 1.7 NNE 19 28 10 15 1024.3 - 1.1
20/08:45pm 17.3 14.5 14.4 83 1.7 NNE 22 37 12 20 1024.3 - 1.1
20/08:30pm 17.2 14.4 14.4 83 1.6 NNE 22 35 12 19 1024.3 - 1.1
20/08:15pm 17.2 14.1 14.4 83 1.6 NNE 24 37 13 20 1024.2 - 1.1
20/08:00pm 17.1 14.0 14.4 84 1.6 NNE 24 44 13 24 1024.2 - 1.1
20/07:45pm 17.1 14.3 14.4 84 1.6 NNE 22 43 12 23 1024.0 - 1.1
20/07:30pm 17.2 14.1 14.5 84 1.6 NNE 24 39 13 21 1023.8 - 1.1
20/07:15pm 17.3 13.8 14.6 84 1.6 NE 26 39 14 21 1023.7 - 1.1
20/07:00pm 17.2 14.1 14.5 84 1.6 NNE 24 39 13 21 1023.5 - 1.1
20/06:45pm 17.3 14.2 14.5 83 1.6 NE 24 41 13 22 1023.5 - 1.1
20/06:30pm 17.3 14.2 14.5 83 1.6 NE 24 35 13 19 1023.5 - 1.1
20/06:15pm 17.4 14.3 14.4 82 1.7 NNE 24 39 13 21 1023.4 - 1.1
20/06:00pm 17.5 14.4 14.4 82 1.8 NNE 24 39 13 21 1023.3 - 1.1
20/05:45pm 17.6 14.8 14.4 81 1.9 NE 22 37 12 20 1023.2 - 1.1
20/05:30pm 17.7 14.6 14.4 81 1.9 NE 24 37 13 20 1023.1 - 1.1
20/05:15pm 17.9 15.1 14.3 79 2.1 NE 22 37 12 20 1023.0 - 1.1
20/05:00pm 18.2 14.7 14.4 78 2.2 NE 26 37 14 20 1023.0 - 1.1
20/04:45pm 18.4 16.0 14.4 77 2.3 NE 20 37 11 20 1022.9 - 1.1
20/04:30pm 18.5 15.0 14.4 77 2.4 NE 26 37 14 20 1022.8 - 1.1
20/04:15pm 19.1 16.5 14.8 76 2.5 NE 22 37 12 20 1022.7 - 1.1
20/04:00pm 18.7 15.9 14.4 76 2.5 NE 22 33 12 18 1022.7 - 1.1
20/03:45pm 19.4 16.7 14.5 73 2.9 NE 22 32 12 17 1022.7 - 1.1
20/03:30pm 20.0 17.3 14.7 71 3.1 NE 22 33 12 18 1022.6 - 1.1
20/03:15pm 20.0 17.8 14.8 72 3.1 NE 20 32 11 17 1022.6 - 1.1
20/03:00pm 20.3 17.7 14.9 71 3.2 NE 22 33 12 18 1022.8 - 1.1

Other formats

Comma delimited format used in spreadsheet applications
http://www.bom.gov.au/fwo/IDN60801/IDN60801.95757.axf

JavaScript Object Notation format (JSON) in row-major order
http://www.bom.gov.au/fwo/IDN60801/IDN60801.95757.json

Data quality

Most of these data are generated automatically and are frequently updated. Quality checks on data are not normally performed. It is possible for incorrect values to appear. Refer to information at About Latest Weather Observations and please check the disclaimer before using these data.